<?xml version="1.0" encoding="UTF-8" standalone="no" ?>
<gpx xmlns="http://www.topografix.com/GPX/1/1" xmlns:xsi="http://www.w3.org/2001/XMLSchema-instance" xsi:schemaLocation="http://www.topografix.com/GPX/1/1 http://www.topografix.com/GPX/1/1/gpx.xsd" version="1.1" creator="VisuGPX - https://www.visugpx.com">
  <metadata>
    <name>Sortie Moto</name>
  </metadata>
  <trk>
    <name><![CDATA[Journal actif: 2020-03-14 12:29]]></name>
    <trkseg>
      <trkpt lat="45.91546" lon="6.12918">
        <ele>462.53</ele>
        <time>2020-03-14T10:29:35Z</time>
      </trkpt>
      <trkpt lat="45.91594" lon="6.12885">
        <ele>461.57</ele>
        <time>2020-03-14T10:29:48Z</time>
      </trkpt>
      <trkpt lat="45.91607" lon="6.12889">
        <ele>461.57</ele>
        <time>2020-03-14T10:29:50Z</time>
      </trkpt>
      <trkpt lat="45.91612" lon="6.12888">
        <ele>461.57</ele>
        <time>2020-03-14T10:29:51Z</time>
      </trkpt>
      <trkpt lat="45.9162" lon="6.12881">
        <ele>461.57</ele>
        <time>2020-03-14T10:29:52Z</time>
      </trkpt>
      <trkpt lat="45.91629" lon="6.12862">
        <ele>461.57</ele>
        <time>2020-03-14T10:29:54Z</time>
      </trkpt>
      <trkpt lat="45.9171" lon="6.12809">
        <ele>461.09</ele>
        <time>2020-03-14T10:30:04Z</time>
      </trkpt>
      <trkpt lat="45.91716" lon="6.12804">
        <ele>460.61</ele>
        <time>2020-03-14T10:30:05Z</time>
      </trkpt>
      <trkpt lat="45.91722" lon="6.128">
        <ele>460.61</ele>
        <time>2020-03-14T10:30:06Z</time>
      </trkpt>
      <trkpt lat="45.91726" lon="6.12796">
        <ele>460.61</ele>
        <time>2020-03-14T10:30:08Z</time>
      </trkpt>
      <trkpt lat="45.91753" lon="6.12793">
        <ele>460.61</ele>
        <time>2020-03-14T10:30:13Z</time>
      </trkpt>
      <trkpt lat="45.91759" lon="6.12793">
        <ele>461.09</ele>
        <time>2020-03-14T10:30:16Z</time>
      </trkpt>
      <trkpt lat="45.91762" lon="6.12793">
        <ele>461.57</ele>
        <time>2020-03-14T10:30:17Z</time>
      </trkpt>
      <trkpt lat="45.91765" lon="6.12788">
        <ele>462.05</ele>
        <time>2020-03-14T10:30:18Z</time>
      </trkpt>
      <trkpt lat="45.91766" lon="6.12782">
        <ele>462.05</ele>
        <time>2020-03-14T10:30:19Z</time>
      </trkpt>
      <trkpt lat="45.91772" lon="6.12768">
        <ele>462.05</ele>
        <time>2020-03-14T10:30:21Z</time>
      </trkpt>
      <trkpt lat="45.91776" lon="6.12762">
        <ele>462.05</ele>
        <time>2020-03-14T10:30:22Z</time>
      </trkpt>
      <trkpt lat="45.91783" lon="6.12756">
        <ele>462.05</ele>
        <time>2020-03-14T10:30:24Z</time>
      </trkpt>
      <trkpt lat="45.91798" lon="6.12746">
        <ele>461.57</ele>
        <time>2020-03-14T10:30:25Z</time>
      </trkpt>
      <trkpt lat="45.91843" lon="6.12717">
        <ele>461.09</ele>
        <time>2020-03-14T10:30:32Z</time>
      </trkpt>
      <trkpt lat="45.91855" lon="6.12709">
        <ele>460.61</ele>
        <time>2020-03-14T10:30:34Z</time>
      </trkpt>
      <trkpt lat="45.91865" lon="6.12701">
        <ele>461.09</ele>
        <time>2020-03-14T10:30:36Z</time>
      </trkpt>
      <trkpt lat="45.91868" lon="6.12699">
        <ele>461.09</ele>
        <time>2020-03-14T10:30:37Z</time>
      </trkpt>
      <trkpt lat="45.91871" lon="6.12697">
        <ele>460.61</ele>
        <time>2020-03-14T10:30:38Z</time>
      </trkpt>
      <trkpt lat="45.91873" lon="6.12695">
        <ele>460.61</ele>
        <time>2020-03-14T10:30:39Z</time>
      </trkpt>
      <trkpt lat="45.91879" lon="6.12691">
        <ele>460.13</ele>
        <time>2020-03-14T10:30:41Z</time>
      </trkpt>
      <trkpt lat="45.91889" lon="6.12684">
        <ele>460.13</ele>
        <time>2020-03-14T10:30:43Z</time>
      </trkpt>
      <trkpt lat="45.91896" lon="6.1268">
        <ele>460.13</ele>
        <time>2020-03-14T10:30:44Z</time>
      </trkpt>
      <trkpt lat="45.91903" lon="6.12675">
        <ele>460.13</ele>
        <time>2020-03-14T10:30:45Z</time>
      </trkpt>
      <trkpt lat="45.91933" lon="6.12656">
        <ele>460.13</ele>
        <time>2020-03-14T10:30:49Z</time>
      </trkpt>
      <trkpt lat="45.91936" lon="6.12651">
        <ele>460.13</ele>
        <time>2020-03-14T10:30:50Z</time>
      </trkpt>
      <trkpt lat="45.91938" lon="6.12647">
        <ele>459.65</ele>
        <time>2020-03-14T10:30:51Z</time>
      </trkpt>
      <trkpt lat="45.91939" lon="6.12644">
        <ele>459.17</ele>
        <time>2020-03-14T10:30:52Z</time>
      </trkpt>
      <trkpt lat="45.9194" lon="6.12642">
        <ele>458.69</ele>
        <time>2020-03-14T10:30:53Z</time>
      </trkpt>
      <trkpt lat="45.91941" lon="6.1264">
        <ele>458.21</ele>
        <time>2020-03-14T10:30:54Z</time>
      </trkpt>
      <trkpt lat="45.91942" lon="6.12637">
        <ele>457.72</ele>
        <time>2020-03-14T10:30:55Z</time>
      </trkpt>
      <trkpt lat="45.91944" lon="6.12633">
        <ele>457.72</ele>
        <time>2020-03-14T10:30:56Z</time>
      </trkpt>
      <trkpt lat="45.91947" lon="6.12627">
        <ele>457.72</ele>
        <time>2020-03-14T10:30:57Z</time>
      </trkpt>
      <trkpt lat="45.9195" lon="6.1262">
        <ele>457.72</ele>
        <time>2020-03-14T10:30:58Z</time>
      </trkpt>
      <trkpt lat="45.91959" lon="6.12593">
        <ele>457.72</ele>
        <time>2020-03-14T10:31:01Z</time>
      </trkpt>
      <trkpt lat="45.91964" lon="6.12585">
        <ele>457.24</ele>
        <time>2020-03-14T10:31:02Z</time>
      </trkpt>
      <trkpt lat="45.91968" lon="6.1258">
        <ele>457.24</ele>
        <time>2020-03-14T10:31:03Z</time>
      </trkpt>
      <trkpt lat="45.91975" lon="6.12576">
        <ele>456.76</ele>
        <time>2020-03-14T10:31:04Z</time>
      </trkpt>
      <trkpt lat="45.91982" lon="6.12573">
        <ele>456.76</ele>
        <time>2020-03-14T10:31:05Z</time>
      </trkpt>
      <trkpt lat="45.91989" lon="6.1257">
        <ele>456.76</ele>
        <time>2020-03-14T10:31:06Z</time>
      </trkpt>
      <trkpt lat="45.91996" lon="6.12568">
        <ele>456.76</ele>
        <time>2020-03-14T10:31:07Z</time>
      </trkpt>
      <trkpt lat="45.92002" lon="6.12565">
        <ele>456.76</ele>
        <time>2020-03-14T10:31:08Z</time>
      </trkpt>
      <trkpt lat="45.92069" lon="6.12561">
        <ele>460.61</ele>
        <time>2020-03-14T10:31:15Z</time>
      </trkpt>
      <trkpt lat="45.92159" lon="6.12559">
        <ele>463.97</ele>
        <time>2020-03-14T10:31:23Z</time>
      </trkpt>
      <trkpt lat="45.92236" lon="6.12557">
        <ele>465.42</ele>
        <time>2020-03-14T10:31:30Z</time>
      </trkpt>
      <trkpt lat="45.92334" lon="6.12556">
        <ele>465.42</ele>
        <time>2020-03-14T10:31:38Z</time>
      </trkpt>
      <trkpt lat="45.92395" lon="6.12565">
        <ele>463.01</ele>
        <time>2020-03-14T10:31:43Z</time>
      </trkpt>
      <trkpt lat="45.92406" lon="6.12574">
        <ele>462.05</ele>
        <time>2020-03-14T10:31:44Z</time>
      </trkpt>
      <trkpt lat="45.92418" lon="6.12582">
        <ele>461.09</ele>
        <time>2020-03-14T10:31:45Z</time>
      </trkpt>
      <trkpt lat="45.92429" lon="6.12591">
        <ele>459.65</ele>
        <time>2020-03-14T10:31:46Z</time>
      </trkpt>
      <trkpt lat="45.9244" lon="6.12601">
        <ele>458.69</ele>
        <time>2020-03-14T10:31:47Z</time>
      </trkpt>
      <trkpt lat="45.9245" lon="6.12615">
        <ele>457.24</ele>
        <time>2020-03-14T10:31:48Z</time>
      </trkpt>
      <trkpt lat="45.92501" lon="6.12685">
        <ele>454.84</ele>
        <time>2020-03-14T10:31:53Z</time>
      </trkpt>
      <trkpt lat="45.92514" lon="6.12696">
        <ele>455.32</ele>
        <time>2020-03-14T10:31:54Z</time>
      </trkpt>
      <trkpt lat="45.92527" lon="6.12704">
        <ele>455.32</ele>
        <time>2020-03-14T10:31:55Z</time>
      </trkpt>
      <trkpt lat="45.9254" lon="6.12713">
        <ele>456.28</ele>
        <time>2020-03-14T10:31:56Z</time>
      </trkpt>
      <trkpt lat="45.92554" lon="6.12717">
        <ele>456.76</ele>
        <time>2020-03-14T10:31:57Z</time>
      </trkpt>
      <trkpt lat="45.92569" lon="6.1272">
        <ele>457.24</ele>
        <time>2020-03-14T10:31:58Z</time>
      </trkpt>
      <trkpt lat="45.92584" lon="6.12721">
        <ele>457.72</ele>
        <time>2020-03-14T10:31:59Z</time>
      </trkpt>
      <trkpt lat="45.926" lon="6.12717">
        <ele>458.21</ele>
        <time>2020-03-14T10:32:00Z</time>
      </trkpt>
      <trkpt lat="45.92616" lon="6.12712">
        <ele>458.21</ele>
        <time>2020-03-14T10:32:01Z</time>
      </trkpt>
      <trkpt lat="45.92631" lon="6.12702">
        <ele>459.17</ele>
        <time>2020-03-14T10:32:02Z</time>
      </trkpt>
      <trkpt lat="45.92646" lon="6.12689">
        <ele>459.17</ele>
        <time>2020-03-14T10:32:03Z</time>
      </trkpt>
      <trkpt lat="45.92659" lon="6.12677">
        <ele>459.17</ele>
        <time>2020-03-14T10:32:04Z</time>
      </trkpt>
      <trkpt lat="45.92672" lon="6.12652">
        <ele>459.17</ele>
        <time>2020-03-14T10:32:05Z</time>
      </trkpt>
      <trkpt lat="45.92683" lon="6.12631">
        <ele>459.17</ele>
        <time>2020-03-14T10:32:06Z</time>
      </trkpt>
      <trkpt lat="45.92694" lon="6.12611">
        <ele>459.17</ele>
        <time>2020-03-14T10:32:07Z</time>
      </trkpt>
      <trkpt lat="45.92702" lon="6.12593">
        <ele>459.17</ele>
        <time>2020-03-14T10:32:08Z</time>
      </trkpt>
      <trkpt lat="45.92708" lon="6.12571">
        <ele>458.21</ele>
        <time>2020-03-14T10:32:11Z</time>
      </trkpt>
      <trkpt lat="45.92749" lon="6.12527">
        <ele>457.24</ele>
        <time>2020-03-14T10:32:12Z</time>
      </trkpt>
      <trkpt lat="45.92762" lon="6.12515">
        <ele>456.76</ele>
        <time>2020-03-14T10:32:13Z</time>
      </trkpt>
      <trkpt lat="45.92779" lon="6.12506">
        <ele>456.28</ele>
        <time>2020-03-14T10:32:14Z</time>
      </trkpt>
      <trkpt lat="45.92797" lon="6.12498">
        <ele>455.8</ele>
        <time>2020-03-14T10:32:15Z</time>
      </trkpt>
      <trkpt lat="45.92815" lon="6.12489">
        <ele>455.32</ele>
        <time>2020-03-14T10:32:16Z</time>
      </trkpt>
      <trkpt lat="45.92832" lon="6.1248">
        <ele>454.84</ele>
        <time>2020-03-14T10:32:17Z</time>
      </trkpt>
      <trkpt lat="45.92895" lon="6.12416">
        <ele>454.36</ele>
        <time>2020-03-14T10:32:21Z</time>
      </trkpt>
      <trkpt lat="45.92907" lon="6.12404">
        <ele>454.36</ele>
        <time>2020-03-14T10:32:22Z</time>
      </trkpt>
      <trkpt lat="45.92921" lon="6.12397">
        <ele>454.36</ele>
        <time>2020-03-14T10:32:23Z</time>
      </trkpt>
      <trkpt lat="45.92933" lon="6.12391">
        <ele>453.88</ele>
        <time>2020-03-14T10:32:24Z</time>
      </trkpt>
      <trkpt lat="45.92948" lon="6.12385">
        <ele>453.88</ele>
        <time>2020-03-14T10:32:25Z</time>
      </trkpt>
      <trkpt lat="45.92973" lon="6.12385">
        <ele>454.36</ele>
        <time>2020-03-14T10:32:27Z</time>
      </trkpt>
      <trkpt lat="45.92982" lon="6.12389">
        <ele>454.36</ele>
        <time>2020-03-14T10:32:28Z</time>
      </trkpt>
      <trkpt lat="45.92989" lon="6.12391">
        <ele>453.88</ele>
        <time>2020-03-14T10:32:29Z</time>
      </trkpt>
      <trkpt lat="45.92993" lon="6.12392">
        <ele>454.36</ele>
        <time>2020-03-14T10:32:30Z</time>
      </trkpt>
      <trkpt lat="45.92996" lon="6.12394">
        <ele>454.36</ele>
        <time>2020-03-14T10:32:31Z</time>
      </trkpt>
      <trkpt lat="45.92998" lon="6.12396">
        <ele>454.84</ele>
        <time>2020-03-14T10:32:32Z</time>
      </trkpt>
      <trkpt lat="45.93005" lon="6.12401">
        <ele>455.32</ele>
        <time>2020-03-14T10:32:34Z</time>
      </trkpt>
      <trkpt lat="45.9301" lon="6.12405">
        <ele>455.8</ele>
        <time>2020-03-14T10:32:35Z</time>
      </trkpt>
      <trkpt lat="45.93017" lon="6.1241">
        <ele>455.8</ele>
        <time>2020-03-14T10:32:36Z</time>
      </trkpt>
      <trkpt lat="45.93022" lon="6.12424">
        <ele>455.8</ele>
        <time>2020-03-14T10:32:37Z</time>
      </trkpt>
      <trkpt lat="45.93031" lon="6.12428">
        <ele>456.28</ele>
        <time>2020-03-14T10:32:38Z</time>
      </trkpt>
      <trkpt lat="45.9305" lon="6.12444">
        <ele>456.76</ele>
        <time>2020-03-14T10:32:40Z</time>
      </trkpt>
      <trkpt lat="45.93084" lon="6.12498">
        <ele>457.72</ele>
        <time>2020-03-14T10:32:44Z</time>
      </trkpt>
      <trkpt lat="45.93092" lon="6.12512">
        <ele>458.21</ele>
        <time>2020-03-14T10:32:45Z</time>
      </trkpt>
      <trkpt lat="45.93167" lon="6.12645">
        <ele>457.72</ele>
        <time>2020-03-14T10:32:53Z</time>
      </trkpt>
      <trkpt lat="45.93243" lon="6.12761">
        <ele>452.92</ele>
        <time>2020-03-14T10:33:01Z</time>
      </trkpt>
      <trkpt lat="45.93255" lon="6.12772">
        <ele>452.92</ele>
        <time>2020-03-14T10:33:02Z</time>
      </trkpt>
      <trkpt lat="45.93316" lon="6.12817">
        <ele>453.88</ele>
        <time>2020-03-14T10:33:09Z</time>
      </trkpt>
      <trkpt lat="45.93323" lon="6.12823">
        <ele>454.36</ele>
        <time>2020-03-14T10:33:15Z</time>
      </trkpt>
      <trkpt lat="45.93328" lon="6.12827">
        <ele>454.84</ele>
        <time>2020-03-14T10:33:19Z</time>
      </trkpt>
      <trkpt lat="45.93335" lon="6.12836">
        <ele>454.84</ele>
        <time>2020-03-14T10:33:20Z</time>
      </trkpt>
      <trkpt lat="45.93337" lon="6.12844">
        <ele>455.32</ele>
        <time>2020-03-14T10:33:21Z</time>
      </trkpt>
      <trkpt lat="45.93339" lon="6.1285">
        <ele>455.32</ele>
        <time>2020-03-14T10:33:22Z</time>
      </trkpt>
      <trkpt lat="45.93341" lon="6.12855">
        <ele>455.32</ele>
        <time>2020-03-14T10:33:23Z</time>
      </trkpt>
      <trkpt lat="45.93343" lon="6.12861">
        <ele>455.32</ele>
        <time>2020-03-14T10:33:24Z</time>
      </trkpt>
      <trkpt lat="45.93344" lon="6.12868">
        <ele>455.32</ele>
        <time>2020-03-14T10:33:25Z</time>
      </trkpt>
      <trkpt lat="45.93346" lon="6.12876">
        <ele>455.32</ele>
        <time>2020-03-14T10:33:26Z</time>
      </trkpt>
      <trkpt lat="45.93371" lon="6.12971">
        <ele>455.32</ele>
        <time>2020-03-14T10:33:35Z</time>
      </trkpt>
      <trkpt lat="45.93395" lon="6.1307">
        <ele>456.76</ele>
        <time>2020-03-14T10:33:41Z</time>
      </trkpt>
      <trkpt lat="45.93401" lon="6.13087">
        <ele>457.24</ele>
        <time>2020-03-14T10:33:42Z</time>
      </trkpt>
      <trkpt lat="45.93406" lon="6.13104">
        <ele>457.72</ele>
        <time>2020-03-14T10:33:43Z</time>
      </trkpt>
      <trkpt lat="45.93417" lon="6.13118">
        <ele>458.21</ele>
        <time>2020-03-14T10:33:44Z</time>
      </trkpt>
      <trkpt lat="45.93428" lon="6.13131">
        <ele>458.69</ele>
        <time>2020-03-14T10:33:45Z</time>
      </trkpt>
      <trkpt lat="45.93439" lon="6.13144">
        <ele>459.17</ele>
        <time>2020-03-14T10:33:46Z</time>
      </trkpt>
      <trkpt lat="45.93503" lon="6.13205">
        <ele>461.57</ele>
        <time>2020-03-14T10:33:51Z</time>
      </trkpt>
      <trkpt lat="45.93515" lon="6.13223">
        <ele>462.05</ele>
        <time>2020-03-14T10:33:52Z</time>
      </trkpt>
      <trkpt lat="45.93535" lon="6.1327">
        <ele>463.01</ele>
        <time>2020-03-14T10:33:54Z</time>
      </trkpt>
      <trkpt lat="45.93545" lon="6.13294">
        <ele>463.49</ele>
        <time>2020-03-14T10:33:55Z</time>
      </trkpt>
      <trkpt lat="45.93618" lon="6.1348">
        <ele>466.38</ele>
        <time>2020-03-14T10:34:03Z</time>
      </trkpt>
      <trkpt lat="45.9372" lon="6.13756">
        <ele>472.14</ele>
        <time>2020-03-14T10:34:17Z</time>
      </trkpt>
      <trkpt lat="45.93797" lon="6.14101">
        <ele>484.64</ele>
        <time>2020-03-14T10:34:28Z</time>
      </trkpt>
      <trkpt lat="45.93843" lon="6.14256">
        <ele>492.81</ele>
        <time>2020-03-14T10:34:36Z</time>
      </trkpt>
      <trkpt lat="45.93905" lon="6.1438">
        <ele>499.54</ele>
        <time>2020-03-14T10:34:44Z</time>
      </trkpt>
      <trkpt lat="45.9393" lon="6.14419">
        <ele>501.95</ele>
        <time>2020-03-14T10:34:47Z</time>
      </trkpt>
      <trkpt lat="45.9394" lon="6.14448">
        <ele>503.87</ele>
        <time>2020-03-14T10:34:50Z</time>
      </trkpt>
      <trkpt lat="45.93948" lon="6.14453">
        <ele>503.87</ele>
        <time>2020-03-14T10:34:51Z</time>
      </trkpt>
      <trkpt lat="45.93961" lon="6.1449">
        <ele>504.35</ele>
        <time>2020-03-14T10:34:53Z</time>
      </trkpt>
      <trkpt lat="45.93969" lon="6.14511">
        <ele>504.35</ele>
        <time>2020-03-14T10:34:54Z</time>
      </trkpt>
      <trkpt lat="45.94043" lon="6.14651">
        <ele>506.27</ele>
        <time>2020-03-14T10:35:02Z</time>
      </trkpt>
      <trkpt lat="45.94169" lon="6.14902">
        <ele>507.71</ele>
        <time>2020-03-14T10:35:18Z</time>
      </trkpt>
      <trkpt lat="45.94238" lon="6.15074">
        <ele>507.71</ele>
        <time>2020-03-14T10:35:29Z</time>
      </trkpt>
      <trkpt lat="45.94242" lon="6.15086">
        <ele>507.71</ele>
        <time>2020-03-14T10:35:30Z</time>
      </trkpt>
      <trkpt lat="45.9424" lon="6.15106">
        <ele>507.71</ele>
        <time>2020-03-14T10:35:33Z</time>
      </trkpt>
      <trkpt lat="45.94253" lon="6.15138">
        <ele>507.71</ele>
        <time>2020-03-14T10:35:34Z</time>
      </trkpt>
      <trkpt lat="45.94266" lon="6.15144">
        <ele>508.19</ele>
        <time>2020-03-14T10:35:36Z</time>
      </trkpt>
      <trkpt lat="45.94274" lon="6.15163">
        <ele>508.67</ele>
        <time>2020-03-14T10:35:38Z</time>
      </trkpt>
      <trkpt lat="45.94299" lon="6.15213">
        <ele>509.16</ele>
        <time>2020-03-14T10:35:39Z</time>
      </trkpt>
      <trkpt lat="45.94427" lon="6.15413">
        <ele>510.6</ele>
        <time>2020-03-14T10:35:52Z</time>
      </trkpt>
      <trkpt lat="45.9458" lon="6.15629">
        <ele>512.52</ele>
        <time>2020-03-14T10:36:06Z</time>
      </trkpt>
      <trkpt lat="45.94673" lon="6.15757">
        <ele>513.48</ele>
        <time>2020-03-14T10:36:10Z</time>
      </trkpt>
      <trkpt lat="45.94831" lon="6.16011">
        <ele>519.73</ele>
        <time>2020-03-14T10:36:17Z</time>
      </trkpt>
      <trkpt lat="45.94861" lon="6.16062">
        <ele>522.13</ele>
        <time>2020-03-14T10:36:19Z</time>
      </trkpt>
      <trkpt lat="45.94894" lon="6.16095">
        <ele>523.09</ele>
        <time>2020-03-14T10:36:21Z</time>
      </trkpt>
      <trkpt lat="45.94912" lon="6.16108">
        <ele>523.58</ele>
        <time>2020-03-14T10:36:22Z</time>
      </trkpt>
      <trkpt lat="45.94932" lon="6.16112">
        <ele>524.06</ele>
        <time>2020-03-14T10:36:23Z</time>
      </trkpt>
      <trkpt lat="45.94953" lon="6.16113">
        <ele>524.06</ele>
        <time>2020-03-14T10:36:24Z</time>
      </trkpt>
      <trkpt lat="45.94974" lon="6.16111">
        <ele>523.58</ele>
        <time>2020-03-14T10:36:25Z</time>
      </trkpt>
      <trkpt lat="45.94994" lon="6.16109">
        <ele>523.09</ele>
        <time>2020-03-14T10:36:26Z</time>
      </trkpt>
      <trkpt lat="45.95014" lon="6.1611">
        <ele>523.09</ele>
        <time>2020-03-14T10:36:27Z</time>
      </trkpt>
      <trkpt lat="45.95034" lon="6.16118">
        <ele>522.61</ele>
        <time>2020-03-14T10:36:28Z</time>
      </trkpt>
      <trkpt lat="45.95054" lon="6.16134">
        <ele>522.13</ele>
        <time>2020-03-14T10:36:29Z</time>
      </trkpt>
      <trkpt lat="45.95074" lon="6.16153">
        <ele>521.65</ele>
        <time>2020-03-14T10:36:30Z</time>
      </trkpt>
      <trkpt lat="45.95095" lon="6.16172">
        <ele>521.17</ele>
        <time>2020-03-14T10:36:31Z</time>
      </trkpt>
      <trkpt lat="45.95117" lon="6.16187">
        <ele>520.69</ele>
        <time>2020-03-14T10:36:32Z</time>
      </trkpt>
      <trkpt lat="45.95138" lon="6.16199">
        <ele>519.73</ele>
        <time>2020-03-14T10:36:33Z</time>
      </trkpt>
      <trkpt lat="45.9516" lon="6.16207">
        <ele>519.25</ele>
        <time>2020-03-14T10:36:34Z</time>
      </trkpt>
      <trkpt lat="45.95183" lon="6.16211">
        <ele>518.77</ele>
        <time>2020-03-14T10:36:35Z</time>
      </trkpt>
      <trkpt lat="45.95207" lon="6.16215">
        <ele>517.81</ele>
        <time>2020-03-14T10:36:36Z</time>
      </trkpt>
      <trkpt lat="45.95229" lon="6.1622">
        <ele>516.85</ele>
        <time>2020-03-14T10:36:37Z</time>
      </trkpt>
      <trkpt lat="45.95251" lon="6.16228">
        <ele>516.37</ele>
        <time>2020-03-14T10:36:38Z</time>
      </trkpt>
      <trkpt lat="45.95272" lon="6.16245">
        <ele>515.4</ele>
        <time>2020-03-14T10:36:40Z</time>
      </trkpt>
      <trkpt lat="45.95316" lon="6.16279">
        <ele>514.92</ele>
        <time>2020-03-14T10:36:41Z</time>
      </trkpt>
      <trkpt lat="45.9534" lon="6.16293">
        <ele>514.44</ele>
        <time>2020-03-14T10:36:42Z</time>
      </trkpt>
      <trkpt lat="45.95394" lon="6.16312">
        <ele>513.96</ele>
        <time>2020-03-14T10:36:44Z</time>
      </trkpt>
      <trkpt lat="45.95422" lon="6.16321">
        <ele>513.48</ele>
        <time>2020-03-14T10:36:45Z</time>
      </trkpt>
      <trkpt lat="45.95642" lon="6.16387">
        <ele>513.48</ele>
        <time>2020-03-14T10:36:52Z</time>
      </trkpt>
      <trkpt lat="45.95837" lon="6.16457">
        <ele>512.04</ele>
        <time>2020-03-14T10:36:59Z</time>
      </trkpt>
      <trkpt lat="45.95877" lon="6.16477">
        <ele>510.12</ele>
        <time>2020-03-14T10:37:03Z</time>
      </trkpt>
      <trkpt lat="45.95917" lon="6.1651">
        <ele>509.64</ele>
        <time>2020-03-14T10:37:04Z</time>
      </trkpt>
      <trkpt lat="45.95924" lon="6.16518">
        <ele>510.12</ele>
        <time>2020-03-14T10:37:05Z</time>
      </trkpt>
      <trkpt lat="45.95941" lon="6.16539">
        <ele>510.12</ele>
        <time>2020-03-14T10:37:10Z</time>
      </trkpt>
      <trkpt lat="45.95945" lon="6.16543">
        <ele>510.12</ele>
        <time>2020-03-14T10:37:11Z</time>
      </trkpt>
      <trkpt lat="45.95948" lon="6.16569">
        <ele>509.64</ele>
        <time>2020-03-14T10:37:13Z</time>
      </trkpt>
      <trkpt lat="45.95952" lon="6.16585">
        <ele>508.67</ele>
        <time>2020-03-14T10:37:15Z</time>
      </trkpt>
      <trkpt lat="45.95959" lon="6.16591">
        <ele>508.67</ele>
        <time>2020-03-14T10:37:16Z</time>
      </trkpt>
      <trkpt lat="45.95965" lon="6.16593">
        <ele>509.16</ele>
        <time>2020-03-14T10:37:17Z</time>
      </trkpt>
      <trkpt lat="45.95982" lon="6.16582">
        <ele>508.19</ele>
        <time>2020-03-14T10:37:20Z</time>
      </trkpt>
      <trkpt lat="45.96017" lon="6.16565">
        <ele>505.79</ele>
        <time>2020-03-14T10:37:23Z</time>
      </trkpt>
      <trkpt lat="45.9603" lon="6.16566">
        <ele>505.31</ele>
        <time>2020-03-14T10:37:24Z</time>
      </trkpt>
      <trkpt lat="45.96139" lon="6.16568">
        <ele>505.79</ele>
        <time>2020-03-14T10:37:32Z</time>
      </trkpt>
      <trkpt lat="45.96274" lon="6.16543">
        <ele>507.23</ele>
        <time>2020-03-14T10:37:43Z</time>
      </trkpt>
      <trkpt lat="45.96407" lon="6.16503">
        <ele>505.79</ele>
        <time>2020-03-14T10:37:53Z</time>
      </trkpt>
      <trkpt lat="45.96558" lon="6.16457">
        <ele>510.12</ele>
        <time>2020-03-14T10:38:02Z</time>
      </trkpt>
      <trkpt lat="45.96717" lon="6.16406">
        <ele>508.67</ele>
        <time>2020-03-14T10:38:14Z</time>
      </trkpt>
      <trkpt lat="45.968" lon="6.16383">
        <ele>506.75</ele>
        <time>2020-03-14T10:38:22Z</time>
      </trkpt>
      <trkpt lat="45.96824" lon="6.1638">
        <ele>508.19</ele>
        <time>2020-03-14T10:38:25Z</time>
      </trkpt>
      <trkpt lat="45.96917" lon="6.1638">
        <ele>512.52</ele>
        <time>2020-03-14T10:38:34Z</time>
      </trkpt>
      <trkpt lat="45.97069" lon="6.16389">
        <ele>513.96</ele>
        <time>2020-03-14T10:38:45Z</time>
      </trkpt>
      <trkpt lat="45.97196" lon="6.16396">
        <ele>515.4</ele>
        <time>2020-03-14T10:38:55Z</time>
      </trkpt>
      <trkpt lat="45.97348" lon="6.16403">
        <ele>516.37</ele>
        <time>2020-03-14T10:39:06Z</time>
      </trkpt>
      <trkpt lat="45.9749" lon="6.16412">
        <ele>518.77</ele>
        <time>2020-03-14T10:39:17Z</time>
      </trkpt>
      <trkpt lat="45.97661" lon="6.1642">
        <ele>521.65</ele>
        <time>2020-03-14T10:39:30Z</time>
      </trkpt>
      <trkpt lat="45.97761" lon="6.16423">
        <ele>523.58</ele>
        <time>2020-03-14T10:39:39Z</time>
      </trkpt>
      <trkpt lat="45.97772" lon="6.16423">
        <ele>524.06</ele>
        <time>2020-03-14T10:39:40Z</time>
      </trkpt>
      <trkpt lat="45.97794" lon="6.16425">
        <ele>525.5</ele>
        <time>2020-03-14T10:39:42Z</time>
      </trkpt>
      <trkpt lat="45.97806" lon="6.16426">
        <ele>527.42</ele>
        <time>2020-03-14T10:39:43Z</time>
      </trkpt>
      <trkpt lat="45.97851" lon="6.1643">
        <ele>531.27</ele>
        <time>2020-03-14T10:39:47Z</time>
      </trkpt>
      <trkpt lat="45.97856" lon="6.1643">
        <ele>531.75</ele>
        <time>2020-03-14T10:39:48Z</time>
      </trkpt>
      <trkpt lat="45.9786" lon="6.1643">
        <ele>532.23</ele>
        <time>2020-03-14T10:39:49Z</time>
      </trkpt>
      <trkpt lat="45.97864" lon="6.16431">
        <ele>532.71</ele>
        <time>2020-03-14T10:39:50Z</time>
      </trkpt>
      <trkpt lat="45.97868" lon="6.16431">
        <ele>533.19</ele>
        <time>2020-03-14T10:39:51Z</time>
      </trkpt>
      <trkpt lat="45.97873" lon="6.16431">
        <ele>533.19</ele>
        <time>2020-03-14T10:39:52Z</time>
      </trkpt>
      <trkpt lat="45.97878" lon="6.16432">
        <ele>533.67</ele>
        <time>2020-03-14T10:39:53Z</time>
      </trkpt>
      <trkpt lat="45.97881" lon="6.16432">
        <ele>534.15</ele>
        <time>2020-03-14T10:39:54Z</time>
      </trkpt>
      <trkpt lat="45.97881" lon="6.16432">
        <ele>534.63</ele>
        <time>2020-03-14T10:39:55Z</time>
      </trkpt>
      <trkpt lat="45.97881" lon="6.16432">
        <ele>534.63</ele>
        <time>2020-03-14T10:40:04Z</time>
      </trkpt>
      <trkpt lat="45.97887" lon="6.16405">
        <ele>526.94</ele>
        <time>2020-03-14T10:45:42Z</time>
      </trkpt>
      <trkpt lat="45.97884" lon="6.16405">
        <ele>521.65</ele>
        <time>2020-03-14T10:45:52Z</time>
      </trkpt>
      <trkpt lat="45.97878" lon="6.16432">
        <ele>520.69</ele>
        <time>2020-03-14T10:45:54Z</time>
      </trkpt>
      <trkpt lat="45.97872" lon="6.16431">
        <ele>521.17</ele>
        <time>2020-03-14T10:45:55Z</time>
      </trkpt>
      <trkpt lat="45.97865" lon="6.16431">
        <ele>520.69</ele>
        <time>2020-03-14T10:45:56Z</time>
      </trkpt>
      <trkpt lat="45.97851" lon="6.1643">
        <ele>520.69</ele>
        <time>2020-03-14T10:45:58Z</time>
      </trkpt>
      <trkpt lat="45.97852" lon="6.16432">
        <ele>520.21</ele>
        <time>2020-03-14T10:45:59Z</time>
      </trkpt>
      <trkpt lat="45.97861" lon="6.1643">
        <ele>521.65</ele>
        <time>2020-03-14T10:46:04Z</time>
      </trkpt>
      <trkpt lat="45.97863" lon="6.16431">
        <ele>521.65</ele>
        <time>2020-03-14T10:46:05Z</time>
      </trkpt>
      <trkpt lat="45.97868" lon="6.16431">
        <ele>521.17</ele>
        <time>2020-03-14T10:46:06Z</time>
      </trkpt>
      <trkpt lat="45.97874" lon="6.16431">
        <ele>521.17</ele>
        <time>2020-03-14T10:46:07Z</time>
      </trkpt>
      <trkpt lat="45.97883" lon="6.16432">
        <ele>520.69</ele>
        <time>2020-03-14T10:46:08Z</time>
      </trkpt>
      <trkpt lat="45.97895" lon="6.16433">
        <ele>520.21</ele>
        <time>2020-03-14T10:46:09Z</time>
      </trkpt>
      <trkpt lat="45.98002" lon="6.16455">
        <ele>520.21</ele>
        <time>2020-03-14T10:46:16Z</time>
      </trkpt>
      <trkpt lat="45.98202" lon="6.16514">
        <ele>523.09</ele>
        <time>2020-03-14T10:46:30Z</time>
      </trkpt>
      <trkpt lat="45.98342" lon="6.16571">
        <ele>524.54</ele>
        <time>2020-03-14T10:46:38Z</time>
      </trkpt>
      <trkpt lat="45.98512" lon="6.16672">
        <ele>525.98</ele>
        <time>2020-03-14T10:46:45Z</time>
      </trkpt>
      <trkpt lat="45.98686" lon="6.16835">
        <ele>527.9</ele>
        <time>2020-03-14T10:46:53Z</time>
      </trkpt>
      <trkpt lat="45.98885" lon="6.16979">
        <ele>529.34</ele>
        <time>2020-03-14T10:47:02Z</time>
      </trkpt>
      <trkpt lat="45.99076" lon="6.17108">
        <ele>529.82</ele>
        <time>2020-03-14T10:47:12Z</time>
      </trkpt>
      <trkpt lat="45.99268" lon="6.17257">
        <ele>533.19</ele>
        <time>2020-03-14T10:47:23Z</time>
      </trkpt>
      <trkpt lat="45.99425" lon="6.17384">
        <ele>538.48</ele>
        <time>2020-03-14T10:47:33Z</time>
      </trkpt>
      <trkpt lat="45.9949" lon="6.17419">
        <ele>540.4</ele>
        <time>2020-03-14T10:47:37Z</time>
      </trkpt>
      <trkpt lat="45.99507" lon="6.17432">
        <ele>540.4</ele>
        <time>2020-03-14T10:47:38Z</time>
      </trkpt>
      <trkpt lat="45.9966" lon="6.17583">
        <ele>540.4</ele>
        <time>2020-03-14T10:47:48Z</time>
      </trkpt>
      <trkpt lat="45.99735" lon="6.17681">
        <ele>538.96</ele>
        <time>2020-03-14T10:47:52Z</time>
      </trkpt>
      <trkpt lat="45.99841" lon="6.17823">
        <ele>540.4</ele>
        <time>2020-03-14T10:47:58Z</time>
      </trkpt>
      <trkpt lat="45.99926" lon="6.1794">
        <ele>541.36</ele>
        <time>2020-03-14T10:48:05Z</time>
      </trkpt>
      <trkpt lat="45.99973" lon="6.18003">
        <ele>542.8</ele>
        <time>2020-03-14T10:48:11Z</time>
      </trkpt>
      <trkpt lat="45.99977" lon="6.18013">
        <ele>543.28</ele>
        <time>2020-03-14T10:48:12Z</time>
      </trkpt>
      <trkpt lat="45.99979" lon="6.18022">
        <ele>543.28</ele>
        <time>2020-03-14T10:48:13Z</time>
      </trkpt>
      <trkpt lat="45.99991" lon="6.18028">
        <ele>543.76</ele>
        <time>2020-03-14T10:48:14Z</time>
      </trkpt>
      <trkpt lat="45.99993" lon="6.18031">
        <ele>544.24</ele>
        <time>2020-03-14T10:48:15Z</time>
      </trkpt>
      <trkpt lat="45.99999" lon="6.18041">
        <ele>544.24</ele>
        <time>2020-03-14T10:48:16Z</time>
      </trkpt>
      <trkpt lat="46.00005" lon="6.18048">
        <ele>544.72</ele>
        <time>2020-03-14T10:48:17Z</time>
      </trkpt>
      <trkpt lat="46.00012" lon="6.18057">
        <ele>545.2</ele>
        <time>2020-03-14T10:48:18Z</time>
      </trkpt>
      <trkpt lat="46.00091" lon="6.18166">
        <ele>547.13</ele>
        <time>2020-03-14T10:48:27Z</time>
      </trkpt>
      <trkpt lat="46.00188" lon="6.18335">
        <ele>548.57</ele>
        <time>2020-03-14T10:48:38Z</time>
      </trkpt>
      <trkpt lat="46.0024" lon="6.18513">
        <ele>549.53</ele>
        <time>2020-03-14T10:48:46Z</time>
      </trkpt>
      <trkpt lat="46.00313" lon="6.18764">
        <ele>550.97</ele>
        <time>2020-03-14T10:48:55Z</time>
      </trkpt>
      <trkpt lat="46.00324" lon="6.18786">
        <ele>551.93</ele>
        <time>2020-03-14T10:48:56Z</time>
      </trkpt>
      <trkpt lat="46.00338" lon="6.18807">
        <ele>552.9</ele>
        <time>2020-03-14T10:48:57Z</time>
      </trkpt>
      <trkpt lat="46.00353" lon="6.18826">
        <ele>553.86</ele>
        <time>2020-03-14T10:48:58Z</time>
      </trkpt>
      <trkpt lat="46.0037" lon="6.18844">
        <ele>554.82</ele>
        <time>2020-03-14T10:48:59Z</time>
      </trkpt>
      <trkpt lat="46.00387" lon="6.18861">
        <ele>556.26</ele>
        <time>2020-03-14T10:49:00Z</time>
      </trkpt>
      <trkpt lat="46.00499" lon="6.18999">
        <ele>562.51</ele>
        <time>2020-03-14T10:49:07Z</time>
      </trkpt>
      <trkpt lat="46.00557" lon="6.1913">
        <ele>568.76</ele>
        <time>2020-03-14T10:49:11Z</time>
      </trkpt>
      <trkpt lat="46.00634" lon="6.19342">
        <ele>580.29</ele>
        <time>2020-03-14T10:49:16Z</time>
      </trkpt>
      <trkpt lat="46.00677" lon="6.1946">
        <ele>588.95</ele>
        <time>2020-03-14T10:49:20Z</time>
      </trkpt>
      <trkpt lat="46.0069" lon="6.19494">
        <ele>592.79</ele>
        <time>2020-03-14T10:49:22Z</time>
      </trkpt>
      <trkpt lat="46.00694" lon="6.19508">
        <ele>594.23</ele>
        <time>2020-03-14T10:49:23Z</time>
      </trkpt>
      <trkpt lat="46.00693" lon="6.19521">
        <ele>595.19</ele>
        <time>2020-03-14T10:49:24Z</time>
      </trkpt>
      <trkpt lat="46.0069" lon="6.19534">
        <ele>595.67</ele>
        <time>2020-03-14T10:49:25Z</time>
      </trkpt>
      <trkpt lat="46.00677" lon="6.19539">
        <ele>596.64</ele>
        <time>2020-03-14T10:49:26Z</time>
      </trkpt>
      <trkpt lat="46.0067" lon="6.19536">
        <ele>597.12</ele>
        <time>2020-03-14T10:49:27Z</time>
      </trkpt>
      <trkpt lat="46.00661" lon="6.19522">
        <ele>598.08</ele>
        <time>2020-03-14T10:49:28Z</time>
      </trkpt>
      <trkpt lat="46.00653" lon="6.19505">
        <ele>598.56</ele>
        <time>2020-03-14T10:49:29Z</time>
      </trkpt>
      <trkpt lat="46.00643" lon="6.19483">
        <ele>599.52</ele>
        <time>2020-03-14T10:49:30Z</time>
      </trkpt>
      <trkpt lat="46.00578" lon="6.19353">
        <ele>604.81</ele>
        <time>2020-03-14T10:49:35Z</time>
      </trkpt>
      <trkpt lat="46.00565" lon="6.19336">
        <ele>606.25</ele>
        <time>2020-03-14T10:49:36Z</time>
      </trkpt>
      <trkpt lat="46.00552" lon="6.19323">
        <ele>606.73</ele>
        <time>2020-03-14T10:49:37Z</time>
      </trkpt>
      <trkpt lat="46.00539" lon="6.19313">
        <ele>607.69</ele>
        <time>2020-03-14T10:49:38Z</time>
      </trkpt>
      <trkpt lat="46.00527" lon="6.19308">
        <ele>608.65</ele>
        <time>2020-03-14T10:49:39Z</time>
      </trkpt>
      <trkpt lat="46.00514" lon="6.1931">
        <ele>609.61</ele>
        <time>2020-03-14T10:49:40Z</time>
      </trkpt>
      <trkpt lat="46.00502" lon="6.19317">
        <ele>610.09</ele>
        <time>2020-03-14T10:49:41Z</time>
      </trkpt>
      <trkpt lat="46.00493" lon="6.19329">
        <ele>611.06</ele>
        <time>2020-03-14T10:49:42Z</time>
      </trkpt>
      <trkpt lat="46.00485" lon="6.19346">
        <ele>611.54</ele>
        <time>2020-03-14T10:49:43Z</time>
      </trkpt>
      <trkpt lat="46.0048" lon="6.19365">
        <ele>612.5</ele>
        <time>2020-03-14T10:49:44Z</time>
      </trkpt>
      <trkpt lat="46.0048" lon="6.19382">
        <ele>612.98</ele>
        <time>2020-03-14T10:49:45Z</time>
      </trkpt>
      <trkpt lat="46.00488" lon="6.19403">
        <ele>613.94</ele>
        <time>2020-03-14T10:49:46Z</time>
      </trkpt>
      <trkpt lat="46.00495" lon="6.19423">
        <ele>614.42</ele>
        <time>2020-03-14T10:49:47Z</time>
      </trkpt>
      <trkpt lat="46.00508" lon="6.19444">
        <ele>615.38</ele>
        <time>2020-03-14T10:49:48Z</time>
      </trkpt>
      <trkpt lat="46.00522" lon="6.19468">
        <ele>616.34</ele>
        <time>2020-03-14T10:49:49Z</time>
      </trkpt>
      <trkpt lat="46.00541" lon="6.19487">
        <ele>617.78</ele>
        <time>2020-03-14T10:49:50Z</time>
      </trkpt>
      <trkpt lat="46.0056" lon="6.19504">
        <ele>618.75</ele>
        <time>2020-03-14T10:49:51Z</time>
      </trkpt>
      <trkpt lat="46.00577" lon="6.19521">
        <ele>619.71</ele>
        <time>2020-03-14T10:49:52Z</time>
      </trkpt>
      <trkpt lat="46.00593" lon="6.19541">
        <ele>620.19</ele>
        <time>2020-03-14T10:49:53Z</time>
      </trkpt>
      <trkpt lat="46.00609" lon="6.19563">
        <ele>621.15</ele>
        <time>2020-03-14T10:49:54Z</time>
      </trkpt>
      <trkpt lat="46.0062" lon="6.19593">
        <ele>622.11</ele>
        <time>2020-03-14T10:49:55Z</time>
      </trkpt>
      <trkpt lat="46.00633" lon="6.19625">
        <ele>622.59</ele>
        <time>2020-03-14T10:49:56Z</time>
      </trkpt>
      <trkpt lat="46.00701" lon="6.19818">
        <ele>628.84</ele>
        <time>2020-03-14T10:50:01Z</time>
      </trkpt>
      <trkpt lat="46.00758" lon="6.20087">
        <ele>640.38</ele>
        <time>2020-03-14T10:50:08Z</time>
      </trkpt>
      <trkpt lat="46.00842" lon="6.20406">
        <ele>654.8</ele>
        <time>2020-03-14T10:50:18Z</time>
      </trkpt>
      <trkpt lat="46.00881" lon="6.20528">
        <ele>656.72</ele>
        <time>2020-03-14T10:50:23Z</time>
      </trkpt>
      <trkpt lat="46.00894" lon="6.2055">
        <ele>656.72</ele>
        <time>2020-03-14T10:50:24Z</time>
      </trkpt>
      <trkpt lat="46.00909" lon="6.2057">
        <ele>657.2</ele>
        <time>2020-03-14T10:50:25Z</time>
      </trkpt>
      <trkpt lat="46.00926" lon="6.2059">
        <ele>657.2</ele>
        <time>2020-03-14T10:50:27Z</time>
      </trkpt>
      <trkpt lat="46.01066" lon="6.20756">
        <ele>656.24</ele>
        <time>2020-03-14T10:50:33Z</time>
      </trkpt>
      <trkpt lat="46.01272" lon="6.21005">
        <ele>661.04</ele>
        <time>2020-03-14T10:50:41Z</time>
      </trkpt>
      <trkpt lat="46.01398" lon="6.21183">
        <ele>665.85</ele>
        <time>2020-03-14T10:50:47Z</time>
      </trkpt>
      <trkpt lat="46.01436" lon="6.21239">
        <ele>666.81</ele>
        <time>2020-03-14T10:50:49Z</time>
      </trkpt>
      <trkpt lat="46.01459" lon="6.21264">
        <ele>667.77</ele>
        <time>2020-03-14T10:50:50Z</time>
      </trkpt>
      <trkpt lat="46.01675" lon="6.21483">
        <ele>674.98</ele>
        <time>2020-03-14T10:50:59Z</time>
      </trkpt>
      <trkpt lat="46.01711" lon="6.2154">
        <ele>675.46</ele>
        <time>2020-03-14T10:51:01Z</time>
      </trkpt>
      <trkpt lat="46.01726" lon="6.2157">
        <ele>675.94</ele>
        <time>2020-03-14T10:51:02Z</time>
      </trkpt>
      <trkpt lat="46.01836" lon="6.21837">
        <ele>677.39</ele>
        <time>2020-03-14T10:51:10Z</time>
      </trkpt>
      <trkpt lat="46.01921" lon="6.22116">
        <ele>680.27</ele>
        <time>2020-03-14T10:51:17Z</time>
      </trkpt>
      <trkpt lat="46.01976" lon="6.22457">
        <ele>684.6</ele>
        <time>2020-03-14T10:51:25Z</time>
      </trkpt>
      <trkpt lat="46.02034" lon="6.22859">
        <ele>692.29</ele>
        <time>2020-03-14T10:51:35Z</time>
      </trkpt>
      <trkpt lat="46.02047" lon="6.22927">
        <ele>693.73</ele>
        <time>2020-03-14T10:51:37Z</time>
      </trkpt>
      <trkpt lat="46.02057" lon="6.2296">
        <ele>694.69</ele>
        <time>2020-03-14T10:51:38Z</time>
      </trkpt>
      <trkpt lat="46.02069" lon="6.22991">
        <ele>695.17</ele>
        <time>2020-03-14T10:51:39Z</time>
      </trkpt>
      <trkpt lat="46.02085" lon="6.23019">
        <ele>695.65</ele>
        <time>2020-03-14T10:51:40Z</time>
      </trkpt>
      <trkpt lat="46.02102" lon="6.23041">
        <ele>696.61</ele>
        <time>2020-03-14T10:51:41Z</time>
      </trkpt>
      <trkpt lat="46.02119" lon="6.23062">
        <ele>697.09</ele>
        <time>2020-03-14T10:51:42Z</time>
      </trkpt>
      <trkpt lat="46.02134" lon="6.23083">
        <ele>697.57</ele>
        <time>2020-03-14T10:51:43Z</time>
      </trkpt>
      <trkpt lat="46.02148" lon="6.23103">
        <ele>698.05</ele>
        <time>2020-03-14T10:51:44Z</time>
      </trkpt>
      <trkpt lat="46.02161" lon="6.23122">
        <ele>698.53</ele>
        <time>2020-03-14T10:51:45Z</time>
      </trkpt>
      <trkpt lat="46.02225" lon="6.2325">
        <ele>702.86</ele>
        <time>2020-03-14T10:51:52Z</time>
      </trkpt>
      <trkpt lat="46.02286" lon="6.23371">
        <ele>706.71</ele>
        <time>2020-03-14T10:51:58Z</time>
      </trkpt>
      <trkpt lat="46.02301" lon="6.23387">
        <ele>707.67</ele>
        <time>2020-03-14T10:51:59Z</time>
      </trkpt>
      <trkpt lat="46.02318" lon="6.23402">
        <ele>708.63</ele>
        <time>2020-03-14T10:52:00Z</time>
      </trkpt>
      <trkpt lat="46.02394" lon="6.2347">
        <ele>714.88</ele>
        <time>2020-03-14T10:52:04Z</time>
      </trkpt>
      <trkpt lat="46.02411" lon="6.23493">
        <ele>716.32</ele>
        <time>2020-03-14T10:52:05Z</time>
      </trkpt>
      <trkpt lat="46.02427" lon="6.23519">
        <ele>717.76</ele>
        <time>2020-03-14T10:52:06Z</time>
      </trkpt>
      <trkpt lat="46.02441" lon="6.2355">
        <ele>719.2</ele>
        <time>2020-03-14T10:52:07Z</time>
      </trkpt>
      <trkpt lat="46.02455" lon="6.23581">
        <ele>720.16</ele>
        <time>2020-03-14T10:52:08Z</time>
      </trkpt>
      <trkpt lat="46.02503" lon="6.23667">
        <ele>723.53</ele>
        <time>2020-03-14T10:52:11Z</time>
      </trkpt>
      <trkpt lat="46.0252" lon="6.23691">
        <ele>724.49</ele>
        <time>2020-03-14T10:52:12Z</time>
      </trkpt>
      <trkpt lat="46.02539" lon="6.23711">
        <ele>725.45</ele>
        <time>2020-03-14T10:52:13Z</time>
      </trkpt>
      <trkpt lat="46.0256" lon="6.23728">
        <ele>725.93</ele>
        <time>2020-03-14T10:52:14Z</time>
      </trkpt>
      <trkpt lat="46.02582" lon="6.2374">
        <ele>726.89</ele>
        <time>2020-03-14T10:52:15Z</time>
      </trkpt>
      <trkpt lat="46.02606" lon="6.23751">
        <ele>727.86</ele>
        <time>2020-03-14T10:52:16Z</time>
      </trkpt>
      <trkpt lat="46.0263" lon="6.23756">
        <ele>729.3</ele>
        <time>2020-03-14T10:52:17Z</time>
      </trkpt>
      <trkpt lat="46.02654" lon="6.23762">
        <ele>730.26</ele>
        <time>2020-03-14T10:52:18Z</time>
      </trkpt>
      <trkpt lat="46.02828" lon="6.23792">
        <ele>737.95</ele>
        <time>2020-03-14T10:52:26Z</time>
      </trkpt>
      <trkpt lat="46.02996" lon="6.23867">
        <ele>743.24</ele>
        <time>2020-03-14T10:52:35Z</time>
      </trkpt>
      <trkpt lat="46.03101" lon="6.2396">
        <ele>743.72</ele>
        <time>2020-03-14T10:52:41Z</time>
      </trkpt>
      <trkpt lat="46.03195" lon="6.24065">
        <ele>744.68</ele>
        <time>2020-03-14T10:52:45Z</time>
      </trkpt>
      <trkpt lat="46.03284" lon="6.24188">
        <ele>747.08</ele>
        <time>2020-03-14T10:52:50Z</time>
      </trkpt>
      <trkpt lat="46.03318" lon="6.24239">
        <ele>747.56</ele>
        <time>2020-03-14T10:52:53Z</time>
      </trkpt>
      <trkpt lat="46.03331" lon="6.24249">
        <ele>748.04</ele>
        <time>2020-03-14T10:52:54Z</time>
      </trkpt>
      <trkpt lat="46.03344" lon="6.24259">
        <ele>748.04</ele>
        <time>2020-03-14T10:52:55Z</time>
      </trkpt>
      <trkpt lat="46.03359" lon="6.24266">
        <ele>748.04</ele>
        <time>2020-03-14T10:52:56Z</time>
      </trkpt>
      <trkpt lat="46.03374" lon="6.24271">
        <ele>748.52</ele>
        <time>2020-03-14T10:52:57Z</time>
      </trkpt>
      <trkpt lat="46.0339" lon="6.2427">
        <ele>749</ele>
        <time>2020-03-14T10:52:58Z</time>
      </trkpt>
      <trkpt lat="46.03405" lon="6.24267">
        <ele>749</ele>
        <time>2020-03-14T10:52:59Z</time>
      </trkpt>
      <trkpt lat="46.0342" lon="6.2426">
        <ele>749.49</ele>
        <time>2020-03-14T10:53:00Z</time>
      </trkpt>
      <trkpt lat="46.03435" lon="6.24251">
        <ele>749.49</ele>
        <time>2020-03-14T10:53:01Z</time>
      </trkpt>
      <trkpt lat="46.03448" lon="6.24236">
        <ele>749.97</ele>
        <time>2020-03-14T10:53:02Z</time>
      </trkpt>
      <trkpt lat="46.03461" lon="6.24216">
        <ele>750.93</ele>
        <time>2020-03-14T10:53:03Z</time>
      </trkpt>
      <trkpt lat="46.03475" lon="6.24194">
        <ele>751.89</ele>
        <time>2020-03-14T10:53:04Z</time>
      </trkpt>
      <trkpt lat="46.03491" lon="6.24168">
        <ele>752.37</ele>
        <time>2020-03-14T10:53:05Z</time>
      </trkpt>
      <trkpt lat="46.03521" lon="6.24118">
        <ele>754.29</ele>
        <time>2020-03-14T10:53:07Z</time>
      </trkpt>
      <trkpt lat="46.03538" lon="6.24098">
        <ele>755.25</ele>
        <time>2020-03-14T10:53:08Z</time>
      </trkpt>
      <trkpt lat="46.03555" lon="6.24084">
        <ele>756.21</ele>
        <time>2020-03-14T10:53:09Z</time>
      </trkpt>
      <trkpt lat="46.03578" lon="6.24076">
        <ele>757.66</ele>
        <time>2020-03-14T10:53:10Z</time>
      </trkpt>
      <trkpt lat="46.036" lon="6.24071">
        <ele>758.62</ele>
        <time>2020-03-14T10:53:11Z</time>
      </trkpt>
      <trkpt lat="46.03623" lon="6.24073">
        <ele>759.58</ele>
        <time>2020-03-14T10:53:12Z</time>
      </trkpt>
      <trkpt lat="46.03644" lon="6.24078">
        <ele>760.06</ele>
        <time>2020-03-14T10:53:13Z</time>
      </trkpt>
      <trkpt lat="46.03666" lon="6.24089">
        <ele>761.5</ele>
        <time>2020-03-14T10:53:14Z</time>
      </trkpt>
      <trkpt lat="46.03686" lon="6.24109">
        <ele>762.46</ele>
        <time>2020-03-14T10:53:15Z</time>
      </trkpt>
      <trkpt lat="46.03707" lon="6.2413">
        <ele>763.9</ele>
        <time>2020-03-14T10:53:16Z</time>
      </trkpt>
      <trkpt lat="46.03725" lon="6.24157">
        <ele>765.35</ele>
        <time>2020-03-14T10:53:17Z</time>
      </trkpt>
      <trkpt lat="46.03744" lon="6.24185">
        <ele>766.79</ele>
        <time>2020-03-14T10:53:18Z</time>
      </trkpt>
      <trkpt lat="46.03762" lon="6.24215">
        <ele>768.23</ele>
        <time>2020-03-14T10:53:19Z</time>
      </trkpt>
      <trkpt lat="46.03775" lon="6.24251">
        <ele>770.15</ele>
        <time>2020-03-14T10:53:20Z</time>
      </trkpt>
      <trkpt lat="46.03789" lon="6.24289">
        <ele>771.6</ele>
        <time>2020-03-14T10:53:21Z</time>
      </trkpt>
      <trkpt lat="46.03799" lon="6.2433">
        <ele>773.52</ele>
        <time>2020-03-14T10:53:22Z</time>
      </trkpt>
      <trkpt lat="46.03807" lon="6.24373">
        <ele>774.96</ele>
        <time>2020-03-14T10:53:23Z</time>
      </trkpt>
      <trkpt lat="46.0385" lon="6.24551">
        <ele>785.05</ele>
        <time>2020-03-14T10:53:28Z</time>
      </trkpt>
      <trkpt lat="46.03861" lon="6.2458">
        <ele>786.5</ele>
        <time>2020-03-14T10:53:29Z</time>
      </trkpt>
      <trkpt lat="46.03877" lon="6.24605">
        <ele>787.94</ele>
        <time>2020-03-14T10:53:30Z</time>
      </trkpt>
      <trkpt lat="46.03893" lon="6.24629">
        <ele>788.9</ele>
        <time>2020-03-14T10:53:31Z</time>
      </trkpt>
      <trkpt lat="46.03911" lon="6.24648">
        <ele>789.86</ele>
        <time>2020-03-14T10:53:32Z</time>
      </trkpt>
      <trkpt lat="46.03931" lon="6.24668">
        <ele>790.34</ele>
        <time>2020-03-14T10:53:33Z</time>
      </trkpt>
      <trkpt lat="46.03952" lon="6.24683">
        <ele>790.82</ele>
        <time>2020-03-14T10:53:34Z</time>
      </trkpt>
      <trkpt lat="46.03975" lon="6.24697">
        <ele>791.3</ele>
        <time>2020-03-14T10:53:35Z</time>
      </trkpt>
      <trkpt lat="46.04" lon="6.24706">
        <ele>791.3</ele>
        <time>2020-03-14T10:53:36Z</time>
      </trkpt>
      <trkpt lat="46.04025" lon="6.24712">
        <ele>791.3</ele>
        <time>2020-03-14T10:53:37Z</time>
      </trkpt>
      <trkpt lat="46.04074" lon="6.2473">
        <ele>790.82</ele>
        <time>2020-03-14T10:53:39Z</time>
      </trkpt>
      <trkpt lat="46.04098" lon="6.24744">
        <ele>789.86</ele>
        <time>2020-03-14T10:53:40Z</time>
      </trkpt>
      <trkpt lat="46.04121" lon="6.24762">
        <ele>788.9</ele>
        <time>2020-03-14T10:53:41Z</time>
      </trkpt>
      <trkpt lat="46.04142" lon="6.24786">
        <ele>787.94</ele>
        <time>2020-03-14T10:53:42Z</time>
      </trkpt>
      <trkpt lat="46.04163" lon="6.2481">
        <ele>786.98</ele>
        <time>2020-03-14T10:53:43Z</time>
      </trkpt>
      <trkpt lat="46.04184" lon="6.24837">
        <ele>786.02</ele>
        <time>2020-03-14T10:53:44Z</time>
      </trkpt>
      <trkpt lat="46.0434" lon="6.25075">
        <ele>788.42</ele>
        <time>2020-03-14T10:53:52Z</time>
      </trkpt>
      <trkpt lat="46.04353" lon="6.25105">
        <ele>789.86</ele>
        <time>2020-03-14T10:53:53Z</time>
      </trkpt>
      <trkpt lat="46.04364" lon="6.25137">
        <ele>791.3</ele>
        <time>2020-03-14T10:53:54Z</time>
      </trkpt>
      <trkpt lat="46.04417" lon="6.25367">
        <ele>798.03</ele>
        <time>2020-03-14T10:54:01Z</time>
      </trkpt>
      <trkpt lat="46.04479" lon="6.2556">
        <ele>801.4</ele>
        <time>2020-03-14T10:54:07Z</time>
      </trkpt>
      <trkpt lat="46.04535" lon="6.2568">
        <ele>801.4</ele>
        <time>2020-03-14T10:54:13Z</time>
      </trkpt>
      <trkpt lat="46.04641" lon="6.25899">
        <ele>798.99</ele>
        <time>2020-03-14T10:54:25Z</time>
      </trkpt>
      <trkpt lat="46.04731" lon="6.26084">
        <ele>797.55</ele>
        <time>2020-03-14T10:54:35Z</time>
      </trkpt>
      <trkpt lat="46.04848" lon="6.26323">
        <ele>790.34</ele>
        <time>2020-03-14T10:54:47Z</time>
      </trkpt>
      <trkpt lat="46.04944" lon="6.26443">
        <ele>784.09</ele>
        <time>2020-03-14T10:54:54Z</time>
      </trkpt>
      <trkpt lat="46.05074" lon="6.26564">
        <ele>775.44</ele>
        <time>2020-03-14T10:55:02Z</time>
      </trkpt>
      <trkpt lat="46.05098" lon="6.26609">
        <ele>773.04</ele>
        <time>2020-03-14T10:55:04Z</time>
      </trkpt>
      <trkpt lat="46.05109" lon="6.26633">
        <ele>772.56</ele>
        <time>2020-03-14T10:55:05Z</time>
      </trkpt>
      <trkpt lat="46.05119" lon="6.26657">
        <ele>771.6</ele>
        <time>2020-03-14T10:55:06Z</time>
      </trkpt>
      <trkpt lat="46.05126" lon="6.26685">
        <ele>771.11</ele>
        <time>2020-03-14T10:55:07Z</time>
      </trkpt>
      <trkpt lat="46.05133" lon="6.26712">
        <ele>770.15</ele>
        <time>2020-03-14T10:55:08Z</time>
      </trkpt>
      <trkpt lat="46.05141" lon="6.2674">
        <ele>769.19</ele>
        <time>2020-03-14T10:55:09Z</time>
      </trkpt>
      <trkpt lat="46.05144" lon="6.26768">
        <ele>768.23</ele>
        <time>2020-03-14T10:55:10Z</time>
      </trkpt>
      <trkpt lat="46.05147" lon="6.26797">
        <ele>767.75</ele>
        <time>2020-03-14T10:55:11Z</time>
      </trkpt>
      <trkpt lat="46.05149" lon="6.26824">
        <ele>767.27</ele>
        <time>2020-03-14T10:55:12Z</time>
      </trkpt>
      <trkpt lat="46.05148" lon="6.26851">
        <ele>766.79</ele>
        <time>2020-03-14T10:55:13Z</time>
      </trkpt>
      <trkpt lat="46.05128" lon="6.27089">
        <ele>763.9</ele>
        <time>2020-03-14T10:55:22Z</time>
      </trkpt>
      <trkpt lat="46.05128" lon="6.27302">
        <ele>761.02</ele>
        <time>2020-03-14T10:55:29Z</time>
      </trkpt>
      <trkpt lat="46.05157" lon="6.27524">
        <ele>755.25</ele>
        <time>2020-03-14T10:55:34Z</time>
      </trkpt>
      <trkpt lat="46.05199" lon="6.27693">
        <ele>750.93</ele>
        <time>2020-03-14T10:55:39Z</time>
      </trkpt>
      <trkpt lat="46.05275" lon="6.27914">
        <ele>748.04</ele>
        <time>2020-03-14T10:55:44Z</time>
      </trkpt>
      <trkpt lat="46.05365" lon="6.28169">
        <ele>743.72</ele>
        <time>2020-03-14T10:55:49Z</time>
      </trkpt>
      <trkpt lat="46.0552" lon="6.28614">
        <ele>733.14</ele>
        <time>2020-03-14T10:55:59Z</time>
      </trkpt>
      <trkpt lat="46.05594" lon="6.28817">
        <ele>727.37</ele>
        <time>2020-03-14T10:56:05Z</time>
      </trkpt>
      <trkpt lat="46.05637" lon="6.28897">
        <ele>724.01</ele>
        <time>2020-03-14T10:56:08Z</time>
      </trkpt>
      <trkpt lat="46.05652" lon="6.28922">
        <ele>722.57</ele>
        <time>2020-03-14T10:56:09Z</time>
      </trkpt>
      <trkpt lat="46.05671" lon="6.28942">
        <ele>721.61</ele>
        <time>2020-03-14T10:56:10Z</time>
      </trkpt>
      <trkpt lat="46.05691" lon="6.28959">
        <ele>720.16</ele>
        <time>2020-03-14T10:56:11Z</time>
      </trkpt>
      <trkpt lat="46.05712" lon="6.28973">
        <ele>719.2</ele>
        <time>2020-03-14T10:56:12Z</time>
      </trkpt>
      <trkpt lat="46.05733" lon="6.28987">
        <ele>718.72</ele>
        <time>2020-03-14T10:56:13Z</time>
      </trkpt>
      <trkpt lat="46.05755" lon="6.28995">
        <ele>717.28</ele>
        <time>2020-03-14T10:56:14Z</time>
      </trkpt>
      <trkpt lat="46.05777" lon="6.29003">
        <ele>716.32</ele>
        <time>2020-03-14T10:56:15Z</time>
      </trkpt>
      <trkpt lat="46.058" lon="6.29007">
        <ele>714.88</ele>
        <time>2020-03-14T10:56:16Z</time>
      </trkpt>
      <trkpt lat="46.05822" lon="6.2901">
        <ele>713.44</ele>
        <time>2020-03-14T10:56:17Z</time>
      </trkpt>
      <trkpt lat="46.05844" lon="6.29007">
        <ele>712.47</ele>
        <time>2020-03-14T10:56:18Z</time>
      </trkpt>
      <trkpt lat="46.05864" lon="6.29005">
        <ele>711.03</ele>
        <time>2020-03-14T10:56:19Z</time>
      </trkpt>
      <trkpt lat="46.05883" lon="6.29002">
        <ele>709.59</ele>
        <time>2020-03-14T10:56:20Z</time>
      </trkpt>
      <trkpt lat="46.06037" lon="6.28953">
        <ele>700.46</ele>
        <time>2020-03-14T10:56:29Z</time>
      </trkpt>
      <trkpt lat="46.0624" lon="6.28884">
        <ele>689.4</ele>
        <time>2020-03-14T10:56:39Z</time>
      </trkpt>
      <trkpt lat="46.06373" lon="6.28847">
        <ele>682.19</ele>
        <time>2020-03-14T10:56:44Z</time>
      </trkpt>
      <trkpt lat="46.06419" lon="6.28838">
        <ele>677.87</ele>
        <time>2020-03-14T10:56:47Z</time>
      </trkpt>
      <trkpt lat="46.06434" lon="6.28858">
        <ele>676.91</ele>
        <time>2020-03-14T10:56:48Z</time>
      </trkpt>
      <trkpt lat="46.06439" lon="6.28859">
        <ele>675.94</ele>
        <time>2020-03-14T10:56:49Z</time>
      </trkpt>
      <trkpt lat="46.06452" lon="6.28852">
        <ele>675.46</ele>
        <time>2020-03-14T10:56:50Z</time>
      </trkpt>
      <trkpt lat="46.06456" lon="6.28849">
        <ele>675.46</ele>
        <time>2020-03-14T10:56:51Z</time>
      </trkpt>
      <trkpt lat="46.06471" lon="6.28828">
        <ele>674.98</ele>
        <time>2020-03-14T10:56:52Z</time>
      </trkpt>
      <trkpt lat="46.06489" lon="6.28823">
        <ele>674.02</ele>
        <time>2020-03-14T10:56:53Z</time>
      </trkpt>
      <trkpt lat="46.06511" lon="6.28815">
        <ele>673.54</ele>
        <time>2020-03-14T10:56:54Z</time>
      </trkpt>
      <trkpt lat="46.06643" lon="6.28735">
        <ele>666.81</ele>
        <time>2020-03-14T10:56:59Z</time>
      </trkpt>
      <trkpt lat="46.0676" lon="6.28678">
        <ele>659.6</ele>
        <time>2020-03-14T10:57:04Z</time>
      </trkpt>
      <trkpt lat="46.06781" lon="6.28674">
        <ele>658.64</ele>
        <time>2020-03-14T10:57:05Z</time>
      </trkpt>
      <trkpt lat="46.06801" lon="6.28673">
        <ele>657.2</ele>
        <time>2020-03-14T10:57:06Z</time>
      </trkpt>
      <trkpt lat="46.06819" lon="6.28677">
        <ele>656.24</ele>
        <time>2020-03-14T10:57:07Z</time>
      </trkpt>
      <trkpt lat="46.06838" lon="6.28682">
        <ele>655.28</ele>
        <time>2020-03-14T10:57:08Z</time>
      </trkpt>
      <trkpt lat="46.06856" lon="6.28687">
        <ele>654.31</ele>
        <time>2020-03-14T10:57:09Z</time>
      </trkpt>
      <trkpt lat="46.06873" lon="6.28696">
        <ele>653.35</ele>
        <time>2020-03-14T10:57:10Z</time>
      </trkpt>
      <trkpt lat="46.06889" lon="6.28706">
        <ele>652.39</ele>
        <time>2020-03-14T10:57:11Z</time>
      </trkpt>
      <trkpt lat="46.06907" lon="6.28716">
        <ele>651.43</ele>
        <time>2020-03-14T10:57:12Z</time>
      </trkpt>
      <trkpt lat="46.07075" lon="6.28813">
        <ele>643.26</ele>
        <time>2020-03-14T10:57:22Z</time>
      </trkpt>
      <trkpt lat="46.07199" lon="6.28826">
        <ele>636.05</ele>
        <time>2020-03-14T10:57:29Z</time>
      </trkpt>
      <trkpt lat="46.07341" lon="6.28853">
        <ele>627.4</ele>
        <time>2020-03-14T10:57:37Z</time>
      </trkpt>
      <trkpt lat="46.07389" lon="6.28883">
        <ele>623.55</ele>
        <time>2020-03-14T10:57:40Z</time>
      </trkpt>
      <trkpt lat="46.07403" lon="6.28897">
        <ele>622.59</ele>
        <time>2020-03-14T10:57:41Z</time>
      </trkpt>
      <trkpt lat="46.07416" lon="6.28913">
        <ele>621.63</ele>
        <time>2020-03-14T10:57:42Z</time>
      </trkpt>
      <trkpt lat="46.07428" lon="6.28931">
        <ele>620.67</ele>
        <time>2020-03-14T10:57:43Z</time>
      </trkpt>
      <trkpt lat="46.07439" lon="6.28949">
        <ele>619.71</ele>
        <time>2020-03-14T10:57:44Z</time>
      </trkpt>
      <trkpt lat="46.07449" lon="6.28967">
        <ele>618.75</ele>
        <time>2020-03-14T10:57:45Z</time>
      </trkpt>
      <trkpt lat="46.07459" lon="6.28987">
        <ele>618.26</ele>
        <time>2020-03-14T10:57:46Z</time>
      </trkpt>
      <trkpt lat="46.07467" lon="6.29008">
        <ele>617.3</ele>
        <time>2020-03-14T10:57:47Z</time>
      </trkpt>
      <trkpt lat="46.07473" lon="6.29032">
        <ele>616.82</ele>
        <time>2020-03-14T10:57:48Z</time>
      </trkpt>
      <trkpt lat="46.07479" lon="6.29055">
        <ele>616.34</ele>
        <time>2020-03-14T10:57:49Z</time>
      </trkpt>
      <trkpt lat="46.07512" lon="6.29178">
        <ele>613.46</ele>
        <time>2020-03-14T10:57:55Z</time>
      </trkpt>
      <trkpt lat="46.07519" lon="6.29195">
        <ele>612.02</ele>
        <time>2020-03-14T10:57:56Z</time>
      </trkpt>
      <trkpt lat="46.07516" lon="6.29224">
        <ele>611.54</ele>
        <time>2020-03-14T10:57:57Z</time>
      </trkpt>
      <trkpt lat="46.0751" lon="6.29244">
        <ele>611.06</ele>
        <time>2020-03-14T10:57:58Z</time>
      </trkpt>
      <trkpt lat="46.07503" lon="6.29263">
        <ele>610.57</ele>
        <time>2020-03-14T10:57:59Z</time>
      </trkpt>
      <trkpt lat="46.07474" lon="6.29349">
        <ele>609.13</ele>
        <time>2020-03-14T10:58:03Z</time>
      </trkpt>
      <trkpt lat="46.07465" lon="6.29372">
        <ele>608.65</ele>
        <time>2020-03-14T10:58:04Z</time>
      </trkpt>
      <trkpt lat="46.07453" lon="6.29393">
        <ele>608.17</ele>
        <time>2020-03-14T10:58:05Z</time>
      </trkpt>
      <trkpt lat="46.07328" lon="6.29584">
        <ele>601.44</ele>
        <time>2020-03-14T10:58:14Z</time>
      </trkpt>
      <trkpt lat="46.07238" lon="6.29698">
        <ele>596.64</ele>
        <time>2020-03-14T10:58:20Z</time>
      </trkpt>
      <trkpt lat="46.07156" lon="6.29789">
        <ele>591.83</ele>
        <time>2020-03-14T10:58:26Z</time>
      </trkpt>
      <trkpt lat="46.07146" lon="6.29805">
        <ele>590.87</ele>
        <time>2020-03-14T10:58:27Z</time>
      </trkpt>
      <trkpt lat="46.07092" lon="6.29952">
        <ele>587.5</ele>
        <time>2020-03-14T10:58:35Z</time>
      </trkpt>
      <trkpt lat="46.0708" lon="6.30029">
        <ele>584.62</ele>
        <time>2020-03-14T10:58:40Z</time>
      </trkpt>
      <trkpt lat="46.07077" lon="6.30054">
        <ele>584.14</ele>
        <time>2020-03-14T10:58:41Z</time>
      </trkpt>
      <trkpt lat="46.07078" lon="6.30057">
        <ele>583.66</ele>
        <time>2020-03-14T10:58:42Z</time>
      </trkpt>
      <trkpt lat="46.07084" lon="6.30079">
        <ele>582.22</ele>
        <time>2020-03-14T10:58:44Z</time>
      </trkpt>
      <trkpt lat="46.07082" lon="6.30096">
        <ele>582.22</ele>
        <time>2020-03-14T10:58:45Z</time>
      </trkpt>
      <trkpt lat="46.07065" lon="6.30136">
        <ele>581.25</ele>
        <time>2020-03-14T10:58:47Z</time>
      </trkpt>
      <trkpt lat="46.07059" lon="6.30151">
        <ele>580.29</ele>
        <time>2020-03-14T10:58:48Z</time>
      </trkpt>
      <trkpt lat="46.07046" lon="6.30209">
        <ele>578.85</ele>
        <time>2020-03-14T10:58:52Z</time>
      </trkpt>
      <trkpt lat="46.07044" lon="6.30221">
        <ele>578.37</ele>
        <time>2020-03-14T10:58:53Z</time>
      </trkpt>
      <trkpt lat="46.07031" lon="6.30238">
        <ele>577.41</ele>
        <time>2020-03-14T10:58:54Z</time>
      </trkpt>
      <trkpt lat="46.07021" lon="6.30242">
        <ele>577.41</ele>
        <time>2020-03-14T10:58:55Z</time>
      </trkpt>
      <trkpt lat="46.07008" lon="6.30249">
        <ele>576.93</ele>
        <time>2020-03-14T10:58:56Z</time>
      </trkpt>
      <trkpt lat="46.06936" lon="6.30284">
        <ele>576.93</ele>
        <time>2020-03-14T10:59:03Z</time>
      </trkpt>
      <trkpt lat="46.06921" lon="6.30291">
        <ele>576.93</ele>
        <time>2020-03-14T10:59:05Z</time>
      </trkpt>
      <trkpt lat="46.06913" lon="6.30295">
        <ele>576.93</ele>
        <time>2020-03-14T10:59:06Z</time>
      </trkpt>
    </trkseg>
  </trk>
</gpx>